createdAt,value
2022-08-24T00:00:54.696Z,24.80
2022-08-24T00:03:34.708Z,24.80
2022-08-24T00:06:06.713Z,24.70
2022-08-24T00:08:37.200Z,24.70
2022-08-24T00:11:08.022Z,24.70
2022-08-24T00:13:39.410Z,24.70
2022-08-24T00:16:11.710Z,24.60
2022-08-24T00:18:45.171Z,24.60
2022-08-24T00:21:16.148Z,24.60
2022-08-24T00:23:47.377Z,24.50
2022-08-24T00:26:19.674Z,24.50
2022-08-24T00:29:03.110Z,24.50
2022-08-24T00:31:35.878Z,24.50
2022-08-24T00:34:09.610Z,24.50
2022-08-24T00:36:39.921Z,24.40
2022-08-24T00:39:10.968Z,24.30
2022-08-24T00:41:44.678Z,24.30
2022-08-24T00:44:17.004Z,24.30
2022-08-24T00:46:51.189Z,24.30
2022-08-24T00:49:32.211Z,24.20
2022-08-24T00:52:21.427Z,24.30
2022-08-24T00:55:00.896Z,24.20
2022-08-24T00:57:34.286Z,24.20
2022-08-24T01:00:11.269Z,24.20
2022-08-24T01:02:46.403Z,24.20
2022-08-24T01:05:19.853Z,24.10
2022-08-24T01:07:51.473Z,24.10
2022-08-24T01:10:25.428Z,24.10
2022-08-24T01:13:00.803Z,24.10
2022-08-24T01:15:33.376Z,24.10
2022-08-24T01:18:21.257Z,24.10
2022-08-24T01:21:00.562Z,24.00
2022-08-24T01:23:42.017Z,24.00
2022-08-24T01:26:17.705Z,24.00
2022-08-24T01:28:52.344Z,24.00
2022-08-24T01:31:24.269Z,24.00
2022-08-24T01:33:56.279Z,23.90
2022-08-24T01:36:32.977Z,23.90
2022-08-24T01:39:12.840Z,23.80
2022-08-24T01:41:43.536Z,23.80
2022-08-24T01:44:14.691Z,23.80
2022-08-24T01:46:47.635Z,23.80
2022-08-24T01:49:18.565Z,23.80
2022-08-24T01:51:49.272Z,23.80
2022-08-24T01:54:22.370Z,23.70
2022-08-24T01:56:53.023Z,23.70
2022-08-24T01:59:25.524Z,23.70
2022-08-24T02:01:59.690Z,23.70
2022-08-24T02:04:30.059Z,23.60
2022-08-24T02:07:00.628Z,23.60
2022-08-24T02:09:34.105Z,23.60
2022-08-24T02:12:05.316Z,23.60
2022-08-24T02:14:38.111Z,23.60
2022-08-24T02:17:09.948Z,23.60
2022-08-24T02:19:41.815Z,23.60
2022-08-24T02:22:12.486Z,23.60
2022-08-24T02:24:46.352Z,23.50
2022-08-24T02:27:17.714Z,23.50
2022-08-24T02:29:48.490Z,23.50
2022-08-24T02:32:18.841Z,23.50
2022-08-24T02:34:49.944Z,23.50
2022-08-24T02:37:25.237Z,23.50
2022-08-24T02:39:58.329Z,23.40
2022-08-24T02:42:30.511Z,23.50
2022-08-24T02:45:01.014Z,23.40
2022-08-24T02:47:38.206Z,23.40
2022-08-24T02:50:14.610Z,23.40
2022-08-24T02:52:45.839Z,23.40
2022-08-24T02:55:21.415Z,23.40
2022-08-24T02:57:55.755Z,23.30
2022-08-24T03:00:28.039Z,23.30
2022-08-24T03:02:59.992Z,23.30
2022-08-24T03:05:30.723Z,23.20
2022-08-24T03:08:01.198Z,23.20
2022-08-24T03:10:34.909Z,23.20
2022-08-24T03:13:07.814Z,23.20
2022-08-24T03:15:38.477Z,23.20
2022-08-24T03:18:08.881Z,23.10
2022-08-24T03:20:39.407Z,23.10
2022-08-24T03:23:09.843Z,23.10
2022-08-24T03:25:42.753Z,23.10
2022-08-24T03:28:13.616Z,23.00
2022-08-24T03:30:48.251Z,23.10
2022-08-24T03:33:21.205Z,23.10
2022-08-24T03:35:51.950Z,23.10
2022-08-24T03:38:25.395Z,23.00
2022-08-24T03:40:58.903Z,23.10
2022-08-24T03:43:41.773Z,23.00
2022-08-24T03:46:12.572Z,23.00
2022-08-24T03:48:45.506Z,23.00
2022-08-24T03:51:17.916Z,23.00
2022-08-24T03:53:51.216Z,22.90
2022-08-24T03:56:24.320Z,22.90
2022-08-24T03:58:55.598Z,22.90
2022-08-24T04:01:27.658Z,22.90
2022-08-24T04:03:59.375Z,22.90
2022-08-24T04:06:34.599Z,22.90
2022-08-24T04:09:05.131Z,22.80
2022-08-24T04:11:46.291Z,22.80
2022-08-24T04:14:26.517Z,22.80
2022-08-24T04:17:18.892Z,22.80
2022-08-24T04:20:00.302Z,22.70
2022-08-24T04:22:36.124Z,22.80
2022-08-24T04:25:10.996Z,22.70
2022-08-24T04:27:45.090Z,22.70
2022-08-24T04:30:17.183Z,22.70
2022-08-24T04:33:13.291Z,22.60
2022-08-24T04:35:47.811Z,22.60
2022-08-24T04:38:19.995Z,22.50
2022-08-24T04:41:09.302Z,22.50
2022-08-24T04:43:46.968Z,22.50
2022-08-24T04:46:20.061Z,22.50
2022-08-24T04:48:52.489Z,22.50
2022-08-24T04:51:23.882Z,22.50
2022-08-24T04:53:54.577Z,22.40
2022-08-24T04:56:28.168Z,22.40
2022-08-24T04:59:04.917Z,22.40
2022-08-24T05:01:36.200Z,22.40
2022-08-24T05:04:08.995Z,22.40
2022-08-24T05:06:39.363Z,22.40
2022-08-24T05:09:10.599Z,22.40
2022-08-24T05:11:49.543Z,22.40
2022-08-24T05:14:28.923Z,22.40
2022-08-24T05:17:00.187Z,22.40
2022-08-24T05:19:34.259Z,22.40
2022-08-24T05:22:04.609Z,22.30
2022-08-24T05:24:35.243Z,22.30
2022-08-24T05:27:05.860Z,22.30
2022-08-24T05:29:38.959Z,22.40
2022-08-24T05:32:09.643Z,22.30
2022-08-24T05:34:40.469Z,22.40
2022-08-24T05:37:11.437Z,22.40
2022-08-24T05:39:55.603Z,22.40
2022-08-24T05:42:26.152Z,22.40
2022-08-24T05:44:59.088Z,22.40
2022-08-24T05:47:29.719Z,22.40
2022-08-24T05:50:11.826Z,22.40
2022-08-24T05:52:42.302Z,22.40
2022-08-24T05:55:13.555Z,22.50
2022-08-24T05:57:45.737Z,22.50
2022-08-24T06:00:23.846Z,22.50
2022-08-24T06:02:56.590Z,22.50
2022-08-24T06:05:26.992Z,22.60
2022-08-24T06:07:57.416Z,22.60
2022-08-24T06:10:36.732Z,22.60
2022-08-24T06:13:08.934Z,22.70
2022-08-24T06:15:42.732Z,22.70
2022-08-24T06:18:16.229Z,22.80
2022-08-24T06:20:46.651Z,22.70
2022-08-24T06:23:19.239Z,22.80
2022-08-24T06:26:14.683Z,22.80
2022-08-24T06:28:48.768Z,22.90
2022-08-24T06:31:24.631Z,22.90
2022-08-24T06:33:56.240Z,22.90
2022-08-24T06:36:26.735Z,23.00
2022-08-24T06:38:57.120Z,23.00
2022-08-24T06:41:28.471Z,23.10
2022-08-24T06:43:59.918Z,23.10
2022-08-24T06:46:50.126Z,23.10
2022-08-24T06:49:21.729Z,23.10
2022-08-24T06:51:52.081Z,23.10
2022-08-24T06:54:23.740Z,23.20
2022-08-24T06:56:55.463Z,23.10
2022-08-24T06:59:27.281Z,23.20
2022-08-24T07:02:01.281Z,23.20
2022-08-24T07:04:33.110Z,23.20
2022-08-24T07:07:21.861Z,23.20
2022-08-24T07:09:52.308Z,23.20
2022-08-24T07:12:24.065Z,23.20
2022-08-24T07:14:55.561Z,23.20
2022-08-24T07:17:28.972Z,23.30
2022-08-24T07:19:59.464Z,23.20
2022-08-24T07:22:48.631Z,23.30
2022-08-24T07:25:19.037Z,23.40
2022-08-24T07:27:51.237Z,23.30
2022-08-24T07:30:27.434Z,23.30
2022-08-24T07:33:03.529Z,23.30
2022-08-24T07:35:38.561Z,23.40
2022-08-24T07:38:10.400Z,23.40
2022-08-24T07:41:05.061Z,23.50
2022-08-24T07:43:32.933Z,23.50
2022-08-24T07:46:03.636Z,23.60
2022-08-24T07:48:38.339Z,23.60
2022-08-24T07:51:12.580Z,23.60
2022-08-24T07:53:53.693Z,23.60
2022-08-24T07:56:30.537Z,23.60
2022-08-24T07:59:04.593Z,23.60
2022-08-24T08:01:35.756Z,23.70
2022-08-24T08:04:09.513Z,23.70
2022-08-24T08:06:40.736Z,23.70
2022-08-24T08:09:12.017Z,23.70
2022-08-24T08:11:43.801Z,23.80
2022-08-24T08:14:18.095Z,23.90
2022-08-24T08:16:49.163Z,24.00
2022-08-24T08:19:22.320Z,24.20
2022-08-24T08:22:07.559Z,24.30
2022-08-24T08:24:47.860Z,24.20
2022-08-24T08:27:18.130Z,24.10
2022-08-24T08:29:48.897Z,24.20
2022-08-24T08:32:20.323Z,24.10
2022-08-24T08:35:00.113Z,24.10
2022-08-24T08:37:33.405Z,24.20
2022-08-24T08:40:04.089Z,24.20
2022-08-24T08:42:55.228Z,24.30
2022-08-24T08:45:34.750Z,24.30
2022-08-24T08:49:05.655Z,24.30
2022-08-24T08:52:16.159Z,24.40
2022-08-24T08:54:55.148Z,24.50
2022-08-24T08:57:42.430Z,24.40
2022-08-24T09:00:17.467Z,24.50
2022-08-24T09:03:27.147Z,24.50
2022-08-24T09:06:38.653Z,24.60
2022-08-24T09:09:35.147Z,24.60
2022-08-24T09:12:23.409Z,24.70
2022-08-24T09:15:28.700Z,24.70
2022-08-24T09:18:12.307Z,24.80
2022-08-24T09:21:04.672Z,24.90
2022-08-24T09:23:44.005Z,24.90
2022-08-24T09:26:27.297Z,25.00
2022-08-24T09:29:08.429Z,25.10
2022-08-24T09:31:49.450Z,25.40
2022-08-24T09:34:30.154Z,25.50
2022-08-24T09:37:12.388Z,25.60
2022-08-24T09:40:02.791Z,25.70
2022-08-24T09:43:05.065Z,25.80
2022-08-24T09:46:06.518Z,26.00
2022-08-24T09:49:02.607Z,26.10
2022-08-24T09:52:07.824Z,26.20
2022-08-24T09:55:10.551Z,26.30
2022-08-24T09:58:00.810Z,26.30
2022-08-24T10:00:41.156Z,26.30
2022-08-24T10:03:36.294Z,26.60
2022-08-24T10:06:27.226Z,26.60
2022-08-24T10:09:24.009Z,26.70
2022-08-24T10:12:01.112Z,26.90
2022-08-24T10:14:48.140Z,26.90
2022-08-24T10:17:34.872Z,26.90
2022-08-24T10:20:15.876Z,27.00
2022-08-24T10:23:21.457Z,27.00
2022-08-24T10:25:58.872Z,27.00
2022-08-24T10:28:56.456Z,27.10
2022-08-24T10:31:34.326Z,27.40
2022-08-24T10:34:22.713Z,27.40
2022-08-24T10:37:04.245Z,27.50
2022-08-24T10:40:09.600Z,27.60
2022-08-24T10:43:29.582Z,27.70
2022-08-24T10:46:32.307Z,27.80
2022-08-24T10:49:37.113Z,28.00
2022-08-24T10:53:01.438Z,27.90
2022-08-24T10:55:35.193Z,28.10
2022-08-24T10:58:26.398Z,28.10
2022-08-24T11:00:57.446Z,28.10
2022-08-24T11:03:28.817Z,28.20
2022-08-24T11:06:01.910Z,28.30
2022-08-24T11:08:35.493Z,28.40
2022-08-24T11:11:13.461Z,28.50
2022-08-24T11:13:59.197Z,28.50
2022-08-24T11:16:37.370Z,28.50
2022-08-24T11:19:13.393Z,28.60
2022-08-24T11:21:52.360Z,28.70
2022-08-24T11:24:34.090Z,28.80
2022-08-24T11:27:08.683Z,28.90
2022-08-24T11:30:04.800Z,29.10
2022-08-24T11:32:41.931Z,29.10
2022-08-24T11:35:26.595Z,29.20
2022-08-24T11:38:11.368Z,29.40
2022-08-24T11:40:45.492Z,29.40
2022-08-24T11:43:29.450Z,29.50
2022-08-24T11:46:11.609Z,29.50
2022-08-24T11:48:50.916Z,29.50
2022-08-24T11:51:31.565Z,29.60
2022-08-24T11:54:11.735Z,29.60
2022-08-24T11:56:49.047Z,29.70
2022-08-24T11:59:27.935Z,29.80
2022-08-24T12:02:03.703Z,30.00
2022-08-24T12:04:44.915Z,30.00
2022-08-24T12:07:24.596Z,30.10
2022-08-24T12:10:15.766Z,30.20
2022-08-24T12:12:52.410Z,30.30
2022-08-24T12:15:38.495Z,30.30
2022-08-24T12:18:21.655Z,30.20
2022-08-24T12:20:57.299Z,30.30
2022-08-24T12:23:42.061Z,30.40
2022-08-24T12:26:20.337Z,30.50
2022-08-24T12:28:54.898Z,30.70
2022-08-24T12:31:32.497Z,30.50
2022-08-24T12:34:09.714Z,30.60
2022-08-24T12:36:47.159Z,30.80
2022-08-24T12:39:23.260Z,30.80
2022-08-24T12:42:06.594Z,30.90
2022-08-24T12:44:45.579Z,31.00
2022-08-24T12:47:21.433Z,31.10
2022-08-24T12:49:58.795Z,31.10
2022-08-24T12:53:07.848Z,31.10
2022-08-24T12:56:17.553Z,31.10
2022-08-24T12:58:57.950Z,31.20
2022-08-24T13:01:33.817Z,31.30
2022-08-24T13:04:34.649Z,31.40
2022-08-24T13:07:10.094Z,31.60
2022-08-24T13:09:44.307Z,31.60
2022-08-24T13:12:45.198Z,31.70
2022-08-24T13:15:55.764Z,31.80
2022-08-24T13:19:16.996Z,31.90
2022-08-24T13:21:51.032Z,32.00
2022-08-24T13:24:56.520Z,31.70
2022-08-24T13:28:14.760Z,31.50
2022-08-24T13:31:13.062Z,31.30
2022-08-24T13:33:48.219Z,31.20
2022-08-24T13:36:42.826Z,31.30
2022-08-24T13:39:40.529Z,31.60
2022-08-24T13:42:23.493Z,31.80
2022-08-24T13:45:23.812Z,32.00
2022-08-24T13:48:05.817Z,32.10
2022-08-24T13:50:45.418Z,31.90
2022-08-24T13:53:46.898Z,32.00
2022-08-24T13:56:50.211Z,32.20
2022-08-24T13:59:36.248Z,32.30
2022-08-24T14:02:15.411Z,32.40
2022-08-24T14:04:58.287Z,32.50
2022-08-24T14:07:34.127Z,32.70
2022-08-24T14:10:15.684Z,32.90
2022-08-24T14:12:56.952Z,32.90
2022-08-24T14:15:36.334Z,33.00
2022-08-24T14:18:13.146Z,32.90
2022-08-24T14:21:05.836Z,33.00
2022-08-24T14:23:58.121Z,33.00
2022-08-24T14:26:58.379Z,33.10
2022-08-24T14:29:35.014Z,33.20
2022-08-24T14:32:37.829Z,33.30
2022-08-24T14:35:33.644Z,33.20
2022-08-24T14:38:35.734Z,33.10
2022-08-24T14:41:20.715Z,33.10
2022-08-24T14:44:13.434Z,33.20
2022-08-24T14:46:51.740Z,33.30
2022-08-24T14:49:30.480Z,33.40
2022-08-24T14:52:12.630Z,33.40
2022-08-24T14:54:56.011Z,33.40
2022-08-24T14:57:45.714Z,33.70
2022-08-24T15:00:20.652Z,33.60
2022-08-24T15:03:15.295Z,33.50
2022-08-24T15:06:16.092Z,33.30
2022-08-24T15:08:45.715Z,33.30
2022-08-24T15:11:24.608Z,33.30
2022-08-24T15:13:59.235Z,33.10
2022-08-24T15:16:37.046Z,33.00
2022-08-24T15:19:14.884Z,32.90
2022-08-24T15:21:53.267Z,32.90
2022-08-24T15:24:28.154Z,32.80
2022-08-24T15:27:14.237Z,32.80
2022-08-24T15:29:56.932Z,32.70
2022-08-24T15:32:29.345Z,32.70
2022-08-24T15:35:01.220Z,32.50
2022-08-24T15:37:35.759Z,32.40
2022-08-24T15:40:19.700Z,32.40
2022-08-24T15:42:55.347Z,32.30
2022-08-24T15:45:26.398Z,32.30
2022-08-24T15:47:57.447Z,32.30
2022-08-24T15:50:32.143Z,32.20
2022-08-24T15:53:04.990Z,32.20
2022-08-24T15:55:39.809Z,32.20
2022-08-24T15:58:34.264Z,32.10
2022-08-24T16:01:36.139Z,32.10
2022-08-24T16:04:08.707Z,32.10
2022-08-24T16:06:43.641Z,32.00
2022-08-24T16:09:17.975Z,32.00
2022-08-24T16:11:53.332Z,31.90
2022-08-24T16:14:33.800Z,31.90
2022-08-24T16:17:21.223Z,31.90
2022-08-24T16:19:55.190Z,31.90
2022-08-24T16:22:38.328Z,31.90
2022-08-24T16:25:24.355Z,31.90
2022-08-24T16:28:09.907Z,31.90
2022-08-24T16:30:48.309Z,31.90
2022-08-24T16:33:33.807Z,32.00
2022-08-24T16:36:09.181Z,32.00
2022-08-24T16:38:46.561Z,32.20
2022-08-24T16:41:20.547Z,32.50
2022-08-24T16:43:51.450Z,32.70
2022-08-24T16:46:26.859Z,32.80
2022-08-24T16:48:57.606Z,32.80
2022-08-24T16:51:28.038Z,33.00
2022-08-24T16:53:58.553Z,33.10
2022-08-24T16:56:29.692Z,33.20
2022-08-24T16:59:00.551Z,33.30
2022-08-24T17:01:33.471Z,33.40
2022-08-24T17:04:03.976Z,33.30
2022-08-24T17:06:34.313Z,33.60
2022-08-24T17:09:04.790Z,33.60
2022-08-24T17:11:37.615Z,33.60
2022-08-24T17:14:10.207Z,33.60
2022-08-24T17:16:43.523Z,33.40
2022-08-24T17:19:17.001Z,33.20
2022-08-24T17:21:47.733Z,33.10
2022-08-24T17:24:20.888Z,33.10
2022-08-24T17:26:52.378Z,33.00
2022-08-24T17:29:23.378Z,32.90
2022-08-24T17:31:59.449Z,32.80
2022-08-24T17:34:30.566Z,32.80
2022-08-24T17:37:01.986Z,32.80
2022-08-24T17:39:33.039Z,32.70
2022-08-24T17:42:03.765Z,32.70
2022-08-24T17:44:37.082Z,32.60
2022-08-24T17:47:10.997Z,32.50
2022-08-24T17:49:41.748Z,32.50
2022-08-24T17:52:12.089Z,32.50
2022-08-24T17:54:42.555Z,32.40
2022-08-24T17:57:17.938Z,32.30
2022-08-24T17:59:51.200Z,32.30
2022-08-24T18:02:24.169Z,32.20
2022-08-24T18:04:54.598Z,32.20
2022-08-24T18:07:49.424Z,32.50
2022-08-24T18:10:17.225Z,32.30
2022-08-24T18:12:47.624Z,32.00
2022-08-24T18:15:18.119Z,32.00
2022-08-24T18:17:55.063Z,31.90
2022-08-24T18:20:29.953Z,31.90
2022-08-24T18:23:00.339Z,31.90
2022-08-24T18:25:31.930Z,31.80
2022-08-24T18:28:02.798Z,31.70
2022-08-24T18:30:34.987Z,31.70
2022-08-24T18:33:07.963Z,31.60
2022-08-24T18:35:38.369Z,31.50
2022-08-24T18:38:08.701Z,31.50
2022-08-24T18:40:40.262Z,31.40
2022-08-24T18:43:24.451Z,31.30
2022-08-24T18:45:56.464Z,31.20
2022-08-24T18:48:32.335Z,31.20
2022-08-24T18:51:04.145Z,31.10
2022-08-24T18:53:35.766Z,31.10
2022-08-24T18:56:11.830Z,31.00
2022-08-24T18:58:43.407Z,30.90
2022-08-24T19:01:14.853Z,30.80
2022-08-24T19:03:47.995Z,30.70
2022-08-24T19:06:18.437Z,30.70
2022-08-24T19:08:48.783Z,30.60
2022-08-24T19:11:24.437Z,30.60
2022-08-24T19:13:54.774Z,30.50
2022-08-24T19:16:30.932Z,30.40
2022-08-24T19:19:03.830Z,30.40
2022-08-24T19:21:37.616Z,30.30
2022-08-24T19:24:09.470Z,30.30
2022-08-24T19:26:40.440Z,30.20
2022-08-24T19:29:12.149Z,30.20
2022-08-24T19:31:44.009Z,30.10
2022-08-24T19:34:17.976Z,30.10
2022-08-24T19:36:48.440Z,30.00
2022-08-24T19:39:18.759Z,30.00
2022-08-24T19:41:55.857Z,29.90
2022-08-24T19:44:38.649Z,29.90
2022-08-24T19:47:11.159Z,29.80
2022-08-24T19:49:44.049Z,29.80
2022-08-24T19:52:14.590Z,29.70
2022-08-24T19:54:47.689Z,29.70
2022-08-24T19:57:37.125Z,29.70
2022-08-24T20:00:26.516Z,29.60
2022-08-24T20:03:00.029Z,29.50
2022-08-24T20:05:33.093Z,29.50
2022-08-24T20:08:04.159Z,29.50
2022-08-24T20:10:38.319Z,29.40
2022-08-24T20:13:09.217Z,29.40
2022-08-24T20:15:40.572Z,29.30
2022-08-24T20:18:11.812Z,29.20
2022-08-24T20:20:45.087Z,29.20
2022-08-24T20:23:16.752Z,29.20
2022-08-24T20:25:46.985Z,29.10
2022-08-24T20:28:29.270Z,29.10
2022-08-24T20:31:00.540Z,29.00
2022-08-24T20:33:31.518Z,29.00
2022-08-24T20:36:04.993Z,28.90
2022-08-24T20:38:36.996Z,28.90
2022-08-24T20:41:07.423Z,28.90
2022-08-24T20:43:37.744Z,28.80
2022-08-24T20:46:12.252Z,28.80
2022-08-24T20:48:43.366Z,28.70
2022-08-24T20:51:18.444Z,28.70
2022-08-24T20:53:49.169Z,28.60
2022-08-24T20:56:27.748Z,28.60
2022-08-24T20:59:03.548Z,28.50
2022-08-24T21:01:33.895Z,28.50
2022-08-24T21:04:05.402Z,28.50
2022-08-24T21:06:39.610Z,28.40
2022-08-24T21:09:12.740Z,28.40
2022-08-24T21:11:48.481Z,28.30
2022-08-24T21:14:21.779Z,28.30
2022-08-24T21:16:52.421Z,28.30
2022-08-24T21:19:23.125Z,28.20
2022-08-24T21:21:56.116Z,28.10
2022-08-24T21:24:27.940Z,28.10
2022-08-24T21:26:58.880Z,28.10
2022-08-24T21:29:32.289Z,28.00
2022-08-24T21:32:16.804Z,28.00
2022-08-24T21:34:47.184Z,27.90
2022-08-24T21:37:21.627Z,27.80
2022-08-24T21:39:52.335Z,27.80
2022-08-24T21:42:24.754Z,27.80
2022-08-24T21:44:55.160Z,27.80
2022-08-24T21:47:25.421Z,27.70
2022-08-24T21:49:56.016Z,27.70
2022-08-24T21:52:28.861Z,27.70
2022-08-24T21:54:59.641Z,27.60
2022-08-24T21:57:30.449Z,27.50
2022-08-24T22:00:00.782Z,27.50
2022-08-24T22:02:31.483Z,27.50
2022-08-24T22:05:01.838Z,27.40
2022-08-24T22:07:37.770Z,27.40
2022-08-24T22:10:10.056Z,27.40
2022-08-24T22:12:40.894Z,27.30
2022-08-24T22:15:16.485Z,27.30
2022-08-24T22:17:52.465Z,27.30
2022-08-24T22:20:23.709Z,27.30
2022-08-24T22:22:58.369Z,27.10
2022-08-24T22:25:29.087Z,27.10
2022-08-24T22:27:59.728Z,27.10
2022-08-24T22:30:30.193Z,27.10
2022-08-24T22:33:00.516Z,27.00
2022-08-24T22:35:32.016Z,27.00
2022-08-24T22:38:17.614Z,27.00
2022-08-24T22:40:47.889Z,26.90
2022-08-24T22:43:21.119Z,26.80
2022-08-24T22:45:53.842Z,26.80
2022-08-24T22:48:24.149Z,26.80
2022-08-24T22:50:57.174Z,26.80
2022-08-24T22:53:30.288Z,26.80
2022-08-24T22:56:01.532Z,26.70
2022-08-24T22:58:34.516Z,26.60
2022-08-24T23:01:04.875Z,26.70
2022-08-24T23:03:35.216Z,26.60
2022-08-24T23:06:06.263Z,26.50
2022-08-24T23:08:39.048Z,26.50
2022-08-24T23:11:09.889Z,26.50
2022-08-24T23:13:40.318Z,26.40
2022-08-24T23:16:12.821Z,26.40
2022-08-24T23:18:55.993Z,26.40
2022-08-24T23:21:26.440Z,26.30
2022-08-24T23:24:00.608Z,26.30
2022-08-24T23:26:32.376Z,26.30
2022-08-24T23:29:03.737Z,26.20
2022-08-24T23:31:34.380Z,26.20
2022-08-24T23:34:05.126Z,26.10
2022-08-24T23:36:35.614Z,26.10
2022-08-24T23:39:10.360Z,26.10
2022-08-24T23:41:46.162Z,26.10
2022-08-24T23:44:23.505Z,26.00
2022-08-24T23:46:53.923Z,26.00
2022-08-24T23:49:25.725Z,25.90
2022-08-24T23:51:56.707Z,25.90
2022-08-24T23:54:29.970Z,25.90
2022-08-24T23:57:00.823Z,25.80
2022-08-24T23:59:32.211Z,25.80
